Georgetown, Georgia
Current Conditions -  °F | °C
As of 7:58 AM on Wednesday 26 Nov 2014 (Local Time) from KEUF Reporting Station
Clear Clear  
Wind Chill: 42°   Ceiling: Unl
Heat Index: 42°   Visibility: 10mi
Dew Point: 41°   Wind: 3mph
Humidity: 96%   Direction: 260°W
Pressure: 30.12"   Gusts: NA
Location:  31.88°N, 85.11°W
Report Text: KEUF 261258Z AUTO 26003KT 10SM CLR 06/05 A3012 RMK AO2 SLP198 T00560050
Loading
Personal Weather Stations






























Interactive Weather Map New forecast layout! Learn more

10-Day Weather Forecast

Advertisements
Track Severe Weather on mobile